A Racer — D5LW5 — position and weather

sailwx.info

Track history (hours):
 
Tides and Currents Weather Stations Pressure Air Temp Water Temp Dewpoint Dewpoint Depression Visibility Wind Speed Wind Dir Waves Ship Positions

A Racer

Last reported at 2018-Feb-13 22:25 UTC. Time now 2018-Feb-21 01:48 UTC.
Position N 27°22' W 014°24'.

Length 168 m; draft 8.1 m.

Type: Ship. MMSI: 636017612.

Date/timePositionNaut miles runAvg speedWind from/ knotsBaromVisibWave heightAir tempDewpointWater temp
2018-Feb-13 22:25N 27°22' W 014°24'512.6
2018-Feb-13 22:00N 27°26' W 014°20'712.7
2018-Feb-13 21:29N 27°31' W 014°15'612.8
2018-Feb-13 21:00N 27°35' W 014°10'613.0
2018-Feb-13 20:30N 27°39' W 014°05'612.9
2018-Feb-13 20:00N 27°44' W 013°59'713.0
2018-Feb-13 19:30N 27°48' W 013°54'712.5
2018-Feb-13 18:58N 27°53' W 013°48'613.0
2018-Feb-13 18:30N 27°57' W 013°43'712.9
2018-Feb-13 18:00N 28°02' W 013°38'713.2
2018-Feb-13 17:28N 28°08' W 013°35'713.0
2018-Feb-13 16:58N 28°14' W 013°33'613.0
2018-Feb-13 16:29N 28°20' W 013°30'1912.9
2018-Feb-13 15:01N 28°38' W 013°21'013.8
2018-Feb-13 15:00N 28°38' W 013°21'913.1
2018-Feb-13 14:19N 28°46' W 013°17'813.0
2018-Feb-13 13:41N 28°53' W 013°13'312.9
2018-Feb-13 13:28N 28°56' W 013°12'57212.2
2018-Feb-11 14:35N 35°58' W 005°34'1 8.7
2018-Feb-11 14:29N 35°58' W 005°33'4 9.3
2018-Feb-11 14:00N 35°59' W 005°28'5 9.6
2018-Feb-11 13:30N 36°00' W 005°23'5 8.9
2018-Feb-11 12:59N 36°01' W 005°17'4 9.3
2018-Feb-11 12:30N 36°02' W 005°11'21411.6
2018-Feb-10 18:00N 37°15' W 001°00'612.8
2018-Feb-10 17:30N 37°20' W 000°55'612.8
2018-Feb-10 17:00N 37°24' W 000°49'812.7
2018-Feb-10 16:21N 37°29' W 000°41'512.3
2018-Feb-10 15:58N 37°32' W 000°36'511.7
2018-Feb-10 15:29N 37°36' W 000°31'611.9
2018-Feb-10 15:00N 37°41' W 000°27'  
2018-Feb-05 03:12N 36°21' E 013°55'311.9
2018-Feb-05 02:56N 36°20' E 013°59'511.8
2018-Feb-05 02:30N 36°18' E 014°05'612.0
2018-Feb-05 01:59N 36°15' E 014°12'612.3
2018-Feb-05 01:30N 36°12' E 014°18'611.8
2018-Feb-05 01:00N 36°09' E 014°24'611.9
2018-Feb-05 00:30N 36°05' E 014°30'612.1
2018-Feb-05 00:00N 36°01' E 014°35'611.7
2018-Feb-04 23:29N 35°57' E 014°41'4 3.2
2018-Feb-04 22:06N 35°54' E 014°45'0 0.0
2018-Feb-04 21:57N 35°54' E 014°45'0 0.0
2018-Feb-04 21:30N 35°54' E 014°45'0 0.0
2018-Feb-04 20:36N 35°54' E 014°45'0 0.0
2018-Feb-04 17:09N 35°54' E 014°45'0 0.0
2018-Feb-04 15:24N 35°54' E 014°45'0 0.0
2018-Feb-04 12:42N 35°54' E 014°45'0 0.1
2018-Feb-04 12:30N 35°54' E 014°45'0 0.2
2018-Feb-04 12:00N 35°54' E 014°45'1 2.5
2018-Feb-04 11:27N 35°53' E 014°46'  
Track history (hours):
 
Tides and Currents Weather Stations Pressure Air Temp Water Temp Dewpoint Dewpoint Depression Visibility Wind Speed Wind Dir Waves Ship Positions

A Racer

Last reported at 2018-Feb-13 22:25 UTC. Time now 2018-Feb-21 01:48 UTC.
Position N 27°22' W 014°24'.

Length 168 m; draft 8.1 m.

Type: Ship. MMSI: 636017612.

Date/timePositionNaut miles runAvg speedWind from/ knotsBaromVisibWave heightAir tempDewpointWater temp
2018-Feb-13 22:25N 27°22' W 014°24'512.6
2018-Feb-13 22:00N 27°26' W 014°20'712.7
2018-Feb-13 21:29N 27°31' W 014°15'612.8
2018-Feb-13 21:00N 27°35' W 014°10'613.0
2018-Feb-13 20:30N 27°39' W 014°05'612.9
2018-Feb-13 20:00N 27°44' W 013°59'713.0
2018-Feb-13 19:30N 27°48' W 013°54'712.5
2018-Feb-13 18:58N 27°53' W 013°48'613.0
2018-Feb-13 18:30N 27°57' W 013°43'712.9
2018-Feb-13 18:00N 28°02' W 013°38'713.2
2018-Feb-13 17:28N 28°08' W 013°35'713.0
2018-Feb-13 16:58N 28°14' W 013°33'613.0
2018-Feb-13 16:29N 28°20' W 013°30'1912.9
2018-Feb-13 15:01N 28°38' W 013°21'013.8
2018-Feb-13 15:00N 28°38' W 013°21'913.1
2018-Feb-13 14:19N 28°46' W 013°17'813.0
2018-Feb-13 13:41N 28°53' W 013°13'312.9
2018-Feb-13 13:28N 28°56' W 013°12'57212.2
2018-Feb-11 14:35N 35°58' W 005°34'1 8.7
2018-Feb-11 14:29N 35°58' W 005°33'4 9.3
2018-Feb-11 14:00N 35°59' W 005°28'5 9.6
2018-Feb-11 13:30N 36°00' W 005°23'5 8.9
2018-Feb-11 12:59N 36°01' W 005°17'4 9.3
2018-Feb-11 12:30N 36°02' W 005°11'21411.6
2018-Feb-10 18:00N 37°15' W 001°00'612.8
2018-Feb-10 17:30N 37°20' W 000°55'612.8
2018-Feb-10 17:00N 37°24' W 000°49'812.7
2018-Feb-10 16:21N 37°29' W 000°41'512.3
2018-Feb-10 15:58N 37°32' W 000°36'511.7
2018-Feb-10 15:29N 37°36' W 000°31'611.9
2018-Feb-10 15:00N 37°41' W 000°27'  
2018-Feb-05 03:12N 36°21' E 013°55'311.9
2018-Feb-05 02:56N 36°20' E 013°59'511.8
2018-Feb-05 02:30N 36°18' E 014°05'612.0
2018-Feb-05 01:59N 36°15' E 014°12'612.3
2018-Feb-05 01:30N 36°12' E 014°18'611.8
2018-Feb-05 01:00N 36°09' E 014°24'611.9
2018-Feb-05 00:30N 36°05' E 014°30'612.1
2018-Feb-05 00:00N 36°01' E 014°35'611.7
2018-Feb-04 23:29N 35°57' E 014°41'4 3.2
2018-Feb-04 22:06N 35°54' E 014°45'0 0.0
2018-Feb-04 21:57N 35°54' E 014°45'0 0.0
2018-Feb-04 21:30N 35°54' E 014°45'0 0.0
2018-Feb-04 20:36N 35°54' E 014°45'0 0.0
2018-Feb-04 17:09N 35°54' E 014°45'0 0.0
2018-Feb-04 15:24N 35°54' E 014°45'0 0.0
2018-Feb-04 12:42N 35°54' E 014°45'0 0.1
2018-Feb-04 12:30N 35°54' E 014°45'0 0.2
2018-Feb-04 12:00N 35°54' E 014°45'1 2.5
2018-Feb-04 11:27N 35°53' E 014°46'  

Dump ship's entire track history